Monday, March 02, 2015
05:02 UTC
  |  Log In   |  Register Free
Airport Search:

Hillsboro Municipal Airport
(KINJ)

Hillsboro Municipal Airport Diagram
No Airport Diagram Available

FAA data valid effective January 08, 2015 - March 05, 2015 (unless otherwise noted).

 
 
 
 
 
 
 
 
 
 
 
 
 
 

Current Aviation Weather for Hillsboro Municipal Airport (KINJ)

The most recent METAR observation for KINJ was updated at: 0413
METAR Summary (Translated METAR)
KINJ
020355Z AUTO 35010KT 3SM BR OVC006 03/02 A3036 RMK AO2 T00300017
KCPT
020355Z AUTO 35010G16KT 3SM BR OVC006 02/02 A3038 RMK AO2
(23.6 nm NW from KINJ)
KJWY
020355Z AUTO 34011KT 7SM -DZ BKN007 OVC013 03/03 A3038 RMK AO2 T00250025
(24.4 nm NE from KINJ)
TAF
No TAF information found within 50 nm of KINJ
  Airport Weather Conditions for KINJ

 Current Weather at INJ
37° F
Rain
North winds at 8.1 mph
INJ NOAA Radar

Pressure: 30.36 in
Humidity: 91%
Wind: North at 8.1 MPH (7 KT)
Dew Point: 35.1°F
Visibility: 3.00 mi


Airport Weather Forecast for KINJ

Translated METAR and TAF for KINJ
Translated METAR for KINJ (0502 UTC 02 March 2015)
found at http://aviationweather.gov/adds/metars/
 
METAR text: KINJ 020455Z AUTO 35010KT 2 1/2SM BR OVC006 03/02 A3037 RMK AO2 T00280016
Conditions at: KINJ (HILLSBORO , TX, US) observed 0455 UTC 02 March 2015
Temperature: 2.8°C (37°F)
Dewpoint: 1.6°C (35°F) [RH = 92%]
Pressure (altimeter): 30.37 inches Hg (1028.5 mb)
Winds: from the N (350 degrees) at 12 MPH (10 knots; 5.2 m/s)
Visibility: 2.50 miles (4.02 km)
Ceiling: 600 feet AGL
Clouds: overcast cloud deck at 600 feet AGL
Weather: BR  (mist)
Translated TAF for KINJ

There is no translated TAF available for this airport

Find All Airport Services Find A Hotel Find A Rental Car Find A Golf Course Find A Restaurant $100 Hamburger



FBO's on the Field
FBO Company Facility Photos Services Transportation Aviation Fuel Prices: Prices include tax
Catering Weather Repair Courtesy Rental Type 100LL JetA JetA+ MOGAS 8087
 
Hillsboro Municipal Airport

This FBO has not yet been rated
FS:Avfuel
Last Updated: Feb-11
Login to update fuel prices
SS:
Contact Hillsboro Municipal AirportMore FBO Information
 
Add another FBO Facility Photos Catering Weather Repair Courtesy Rental Type 100LL JetA JetA+ MOGAS 8087
Services Transportation Aviation Fuel Prices: Prices include tax


model-print
model-print
model-print
model-print